Crab Orchard, KY

5:48 PM EDT on October 24, 2014 (GMT -0400)
London-Corbin / McKee | Change Station
CLOSE
Current Station
Airport
Location: London-Corbin,
Elevation: 1211 ft
Nearby Weather Stations

Elev 1211 ft 37.09 °N, 84.08 °W | Updated 55 minutes ago

Clear
Clear
66 °F
Feels Like 66 °F
N
4
Wind Variable Wind from Variable

Today
High -- | Low -- °F
--% Chance of Precip.
Yesterday
High -- | Low -- °F
Precip. -- in
7:54 AM 6:49 PM
New Moon, 1% visible
Pressure 30.04 in
Visibility 8.0 miles
Clouds Clear
Dew Point 41 °F
Humidity 40%
Rainfall 0.00 in
Snow Depth Not available.
UV 2 out of 12
Pollen 1.50 out of 12
Air Quality Not available.
Flu Activity Sporadic
METAR KLOZ 242053Z AUTO VRB03KT 8SM CLR 19/05 A3005 RMK AO2 SLP173 T01890050 56014

More Conditions Fewer Conditions

Pressure 30.04 in
Visibility 8.0 miles
Clouds Clear
Dew Point 41 °F
Humidity 40%
Rainfall 0.00 in
Snow Depth Not available.
UV 2 out of 12
Pollen 1.50 out of 12
Air Quality Not available.
Flu Activity Sporadic
METAR KLOZ 242053Z AUTO VRB03KT 8SM CLR 19/05 A3005 RMK AO2 SLP173 T01890050 56014

More Conditions Fewer Conditions

10-Day Weather Forecast

Almanac

Astronomy

Oct. 24, 2014 Rise Set
Actual Time 7:54 AM EDT 6:49 PM EDT
Civil Twilight 7:28 AM EDT 7:15 PM EDT
Nautical Twilight 6:57 AM EDT 7:46 PM EDT
Astronomical Twilight 6:27 AM EDT 8:16 PM EDT
Moon 8:32 AM EDT 7:29 PM EDT
Length of Visible Light 11h 47m
Length of Day
10h 54m
Tomorrow will be 2m 13s shorter.
New Moon, 1% of the Moon is Illuminated
Today
New Moon
Oct 30
First Quarter
Nov 6
Full
Nov 14
Last Quarter
Nov 22
New

Today's Extremes

State Highs State Lows

Community

WunderPhotos

Upload Photos

1,764,676 photos uploaded!

WunderBlogs® & News

By Dr. Jeff Masters
Director of Meteorology, Weather Underground
By Kari Strenfel
Meteorologist, Weather Underground
By Christopher C. Burt
Weather Historian, Weather Underground
October 24, 2014
October 24, 2014
October 24, 2014

Nearby

Snow Depth

Station Depth Elevation
No new snow has been reported.

Earthquake Activity

City Distance Mag. Time & Date
No recent earthquake activity has been reported nearby.
Minimum magnitude displayed is 2.5.

Coastal Water Temperatures

Place Temperature
No Stations Reporting

Nearby Weather Stations